sensor_id;sensor_type;location;lat;lon;timestamp;temperature;humidity
15777;DHT22;7989;51.198;6.676;2022-08-21T00:00:06;19.20;99.90
15777;DHT22;7989;51.198;6.676;2022-08-21T00:02:34;19.20;99.90
15777;DHT22;7989;51.198;6.676;2022-08-21T00:05:01;19.20;99.90
15777;DHT22;7989;51.198;6.676;2022-08-21T00:07:29;19.20;99.90
15777;DHT22;7989;51.198;6.676;2022-08-21T00:09:57;19.30;99.90
15777;DHT22;7989;51.198;6.676;2022-08-21T00:12:24;19.30;99.90
15777;DHT22;7989;51.198;6.676;2022-08-21T00:14:51;19.30;99.90
15777;DHT22;7989;51.198;6.676;2022-08-21T00:17:18;19.30;99.90
15777;DHT22;7989;51.198;6.676;2022-08-21T00:19:45;19.30;99.90
15777;DHT22;7989;51.198;6.676;2022-08-21T00:22:12;19.20;99.90
15777;DHT22;7989;51.198;6.676;2022-08-21T00:24:39;19.20;99.90
15777;DHT22;7989;51.198;6.676;2022-08-21T00:27:07;19.30;99.90
15777;DHT22;7989;51.198;6.676;2022-08-21T00:29:34;19.20;99.90
15777;DHT22;7989;51.198;6.676;2022-08-21T00:32:01;19.20;99.90
15777;DHT22;7989;51.198;6.676;2022-08-21T00:34:28;19.20;99.90
15777;DHT22;7989;51.198;6.676;2022-08-21T00:36:55;19.20;99.90
15777;DHT22;7989;51.198;6.676;2022-08-21T00:39:21;19.20;99.90
15777;DHT22;7989;51.198;6.676;2022-08-21T00:41:48;19.20;99.90
15777;DHT22;7989;51.198;6.676;2022-08-21T00:44:17;19.10;99.90
15777;DHT22;7989;51.198;6.676;2022-08-21T00:46:44;19.10;99.90
15777;DHT22;7989;51.198;6.676;2022-08-21T00:49:12;19.00;99.90
15777;DHT22;7989;51.198;6.676;2022-08-21T00:51:43;19.00;99.90
15777;DHT22;7989;51.198;6.676;2022-08-21T00:54:13;18.90;99.90
15777;DHT22;7989;51.198;6.676;2022-08-21T00:56:41;18.80;99.90
15777;DHT22;7989;51.198;6.676;2022-08-21T00:59:08;18.80;99.90
15777;DHT22;7989;51.198;6.676;2022-08-21T01:01:36;18.80;99.90
15777;DHT22;7989;51.198;6.676;2022-08-21T01:04:03;18.80;99.90
15777;DHT22;7989;51.198;6.676;2022-08-21T01:06:30;18.70;99.90
15777;DHT22;7989;51.198;6.676;2022-08-21T01:08:57;18.70;99.90
15777;DHT22;7989;51.198;6.676;2022-08-21T01:11:25;18.60;99.90
15777;DHT22;7989;51.198;6.676;2022-08-21T01:13:52;18.60;99.90
15777;DHT22;7989;51.198;6.676;2022-08-21T01:16:21;18.50;99.90
15777;DHT22;7989;51.198;6.676;2022-08-21T01:18:50;18.40;99.90
15777;DHT22;7989;51.198;6.676;2022-08-21T01:21:20;18.40;99.90
15777;DHT22;7989;51.198;6.676;2022-08-21T01:23:50;18.40;99.90
15777;DHT22;7989;51.198;6.676;2022-08-21T01:26:22;18.40;99.90
15777;DHT22;7989;51.198;6.676;2022-08-21T01:28:57;18.30;99.90
15777;DHT22;7989;51.198;6.676;2022-08-21T01:31:27;18.30;99.90
15777;DHT22;7989;51.198;6.676;2022-08-21T01:33:55;18.30;99.90
15777;DHT22;7989;51.198;6.676;2022-08-21T01:36:24;18.30;99.90
15777;DHT22;7989;51.198;6.676;2022-08-21T01:38:52;18.30;99.90
15777;DHT22;7989;51.198;6.676;2022-08-21T01:41:19;18.20;99.90
15777;DHT22;7989;51.198;6.676;2022-08-21T01:43:45;18.20;99.90
15777;DHT22;7989;51.198;6.676;2022-08-21T01:46:13;18.10;99.90
15777;DHT22;7989;51.198;6.676;2022-08-21T01:48:40;18.10;99.90
15777;DHT22;7989;51.198;6.676;2022-08-21T01:51:07;18.10;99.90
15777;DHT22;7989;51.198;6.676;2022-08-21T01:53:36;18.00;99.90
15777;DHT22;7989;51.198;6.676;2022-08-21T01:56:05;18.00;99.90
15777;DHT22;7989;51.198;6.676;2022-08-21T01:58:32;17.90;99.90
15777;DHT22;7989;51.198;6.676;2022-08-21T02:00:59;18.00;99.90
15777;DHT22;7989;51.198;6.676;2022-08-21T02:03:26;18.00;99.90
15777;DHT22;7989;51.198;6.676;2022-08-21T02:05:53;18.00;99.90
15777;DHT22;7989;51.198;6.676;2022-08-21T02:08:21;17.90;99.90
15777;DHT22;7989;51.198;6.676;2022-08-21T02:10:51;17.90;99.90
15777;DHT22;7989;51.198;6.676;2022-08-21T02:13:18;17.80;99.90
15777;DHT22;7989;51.198;6.676;2022-08-21T02:15:45;17.80;99.90
15777;DHT22;7989;51.198;6.676;2022-08-21T02:18:12;17.80;99.90
15777;DHT22;7989;51.198;6.676;2022-08-21T02:20:44;17.70;99.90
15777;DHT22;7989;51.198;6.676;2022-08-21T02:23:12;17.80;99.90
15777;DHT22;7989;51.198;6.676;2022-08-21T02:25:39;17.70;99.90
15777;DHT22;7989;51.198;6.676;2022-08-21T02:28:10;17.60;99.90
15777;DHT22;7989;51.198;6.676;2022-08-21T02:30:43;17.70;99.90
15777;DHT22;7989;51.198;6.676;2022-08-21T02:33:11;17.70;99.90
15777;DHT22;7989;51.198;6.676;2022-08-21T02:35:39;17.70;99.90
15777;DHT22;7989;51.198;6.676;2022-08-21T02:38:11;17.80;99.90
15777;DHT22;7989;51.198;6.676;2022-08-21T02:40:39;17.80;99.90
15777;DHT22;7989;51.198;6.676;2022-08-21T02:43:08;17.70;99.90
15777;DHT22;7989;51.198;6.676;2022-08-21T02:45:36;17.70;99.90
15777;DHT22;7989;51.198;6.676;2022-08-21T02:48:05;17.70;99.90
15777;DHT22;7989;51.198;6.676;2022-08-21T02:50:34;17.60;99.90
15777;DHT22;7989;51.198;6.676;2022-08-21T02:53:02;17.60;99.90
15777;DHT22;7989;51.198;6.676;2022-08-21T02:55:31;17.60;99.90
15777;DHT22;7989;51.198;6.676;2022-08-21T02:57:58;17.60;99.90
15777;DHT22;7989;51.198;6.676;2022-08-21T03:00:29;17.50;99.90
15777;DHT22;7989;51.198;6.676;2022-08-21T03:02:56;17.50;99.90
15777;DHT22;7989;51.198;6.676;2022-08-21T03:05:24;17.40;99.90
15777;DHT22;7989;51.198;6.676;2022-08-21T03:07:52;17.40;99.90
15777;DHT22;7989;51.198;6.676;2022-08-21T03:10:21;17.40;99.90
15777;DHT22;7989;51.198;6.676;2022-08-21T03:12:48;17.30;99.90
15777;DHT22;7989;51.198;6.676;2022-08-21T03:15:18;17.30;99.90
15777;DHT22;7989;51.198;6.676;2022-08-21T03:17:47;17.30;99.90
15777;DHT22;7989;51.198;6.676;2022-08-21T03:20:15;17.20;99.90
15777;DHT22;7989;51.198;6.676;2022-08-21T03:22:43;17.20;99.90
15777;DHT22;7989;51.198;6.676;2022-08-21T03:25:09;17.30;99.90
15777;DHT22;7989;51.198;6.676;2022-08-21T03:27:37;17.30;99.90
15777;DHT22;7989;51.198;6.676;2022-08-21T03:30:05;17.30;99.90
15777;DHT22;7989;51.198;6.676;2022-08-21T03:32:33;17.20;99.90
15777;DHT22;7989;51.198;6.676;2022-08-21T03:35:03;17.20;99.90
15777;DHT22;7989;51.198;6.676;2022-08-21T03:37:30;17.20;99.90
15777;DHT22;7989;51.198;6.676;2022-08-21T03:39:57;17.10;99.90
15777;DHT22;7989;51.198;6.676;2022-08-21T03:42:24;17.00;99.90
15777;DHT22;7989;51.198;6.676;2022-08-21T03:44:51;16.80;99.90
15777;DHT22;7989;51.198;6.676;2022-08-21T03:47:18;16.80;99.90
15777;DHT22;7989;51.198;6.676;2022-08-21T03:49:45;16.90;99.90
15777;DHT22;7989;51.198;6.676;2022-08-21T03:52:13;16.90;99.90
15777;DHT22;7989;51.198;6.676;2022-08-21T03:54:40;16.90;99.90
15777;DHT22;7989;51.198;6.676;2022-08-21T03:57:07;16.90;99.90
15777;DHT22;7989;51.198;6.676;2022-08-21T03:59:34;16.90;99.90
15777;DHT22;7989;51.198;6.676;2022-08-21T04:02:03;16.90;99.90
15777;DHT22;7989;51.198;6.676;2022-08-21T04:04:31;16.90;99.90
15777;DHT22;7989;51.198;6.676;2022-08-21T04:06:58;16.90;99.90
15777;DHT22;7989;51.198;6.676;2022-08-21T04:09:27;16.80;99.90
15777;DHT22;7989;51.198;6.676;2022-08-21T04:11:54;16.80;99.90
15777;DHT22;7989;51.198;6.676;2022-08-21T04:14:21;16.80;99.90
15777;DHT22;7989;51.198;6.676;2022-08-21T04:16:48;16.80;99.90
15777;DHT22;7989;51.198;6.676;2022-08-21T04:19:15;16.70;99.90
15777;DHT22;7989;51.198;6.676;2022-08-21T04:21:42;16.70;99.90
15777;DHT22;7989;51.198;6.676;2022-08-21T04:24:10;16.70;99.90
15777;DHT22;7989;51.198;6.676;2022-08-21T04:26:38;16.60;99.90
15777;DHT22;7989;51.198;6.676;2022-08-21T04:29:06;16.60;99.90
15777;DHT22;7989;51.198;6.676;2022-08-21T04:31:33;16.70;99.90
15777;DHT22;7989;51.198;6.676;2022-08-21T04:34:00;16.70;99.90
15777;DHT22;7989;51.198;6.676;2022-08-21T04:36:27;16.70;99.90
15777;DHT22;7989;51.198;6.676;2022-08-21T04:38:54;16.70;99.90
15777;DHT22;7989;51.198;6.676;2022-08-21T04:41:21;16.60;99.90
15777;DHT22;7989;51.198;6.676;2022-08-21T04:43:49;16.60;99.90
15777;DHT22;7989;51.198;6.676;2022-08-21T04:46:16;16.60;99.90
15777;DHT22;7989;51.198;6.676;2022-08-21T04:48:44;16.60;99.90
15777;DHT22;7989;51.198;6.676;2022-08-21T04:51:13;16.60;99.90
15777;DHT22;7989;51.198;6.676;2022-08-21T04:53:44;16.60;99.90
15777;DHT22;7989;51.198;6.676;2022-08-21T04:56:15;16.60;99.90
15777;DHT22;7989;51.198;6.676;2022-08-21T04:58:44;16.60;99.90
15777;DHT22;7989;51.198;6.676;2022-08-21T05:01:16;16.60;99.90
15777;DHT22;7989;51.198;6.676;2022-08-21T05:03:44;16.60;99.90
15777;DHT22;7989;51.198;6.676;2022-08-21T05:06:13;16.60;99.90
15777;DHT22;7989;51.198;6.676;2022-08-21T05:08:43;16.60;99.90
15777;DHT22;7989;51.198;6.676;2022-08-21T05:11:12;16.50;99.90
15777;DHT22;7989;51.198;6.676;2022-08-21T05:13:38;16.50;99.90
15777;DHT22;7989;51.198;6.676;2022-08-21T05:16:06;16.50;99.90
15777;DHT22;7989;51.198;6.676;2022-08-21T05:18:34;16.50;99.90
15777;DHT22;7989;51.198;6.676;2022-08-21T05:21:02;16.60;99.90
15777;DHT22;7989;51.198;6.676;2022-08-21T05:23:29;16.60;99.90
15777;DHT22;7989;51.198;6.676;2022-08-21T05:25:56;16.60;99.90
15777;DHT22;7989;51.198;6.676;2022-08-21T05:28:23;16.70;99.90
15777;DHT22;7989;51.198;6.676;2022-08-21T05:30:51;16.70;99.90
15777;DHT22;7989;51.198;6.676;2022-08-21T05:33:17;16.80;99.90
15777;DHT22;7989;51.198;6.676;2022-08-21T05:35:49;16.90;99.90
15777;DHT22;7989;51.198;6.676;2022-08-21T05:38:16;16.90;99.90
15777;DHT22;7989;51.198;6.676;2022-08-21T05:40:43;16.90;99.90
15777;DHT22;7989;51.198;6.676;2022-08-21T05:43:10;17.00;99.90
15777;DHT22;7989;51.198;6.676;2022-08-21T05:45:36;17.00;99.90
15777;DHT22;7989;51.198;6.676;2022-08-21T05:48:06;17.50;99.90
15777;DHT22;7989;51.198;6.676;2022-08-21T05:50:34;18.30;99.90
15777;DHT22;7989;51.198;6.676;2022-08-21T05:53:05;17.90;99.90
15777;DHT22;7989;51.198;6.676;2022-08-21T05:55:32;17.80;99.90
15777;DHT22;7989;51.198;6.676;2022-08-21T05:57:58;17.70;99.90
15777;DHT22;7989;51.198;6.676;2022-08-21T06:00:26;17.60;99.90
15777;DHT22;7989;51.198;6.676;2022-08-21T06:02:52;17.70;99.90
15777;DHT22;7989;51.198;6.676;2022-08-21T06:05:19;17.80;99.90
15777;DHT22;7989;51.198;6.676;2022-08-21T06:07:46;17.70;99.90
15777;DHT22;7989;51.198;6.676;2022-08-21T06:10:14;17.70;99.90
15777;DHT22;7989;51.198;6.676;2022-08-21T06:12:41;17.80;99.90
15777;DHT22;7989;51.198;6.676;2022-08-21T06:15:08;17.90;99.90
15777;DHT22;7989;51.198;6.676;2022-08-21T06:17:35;17.90;99.90
15777;DHT22;7989;51.198;6.676;2022-08-21T06:20:04;18.10;99.90
15777;DHT22;7989;51.198;6.676;2022-08-21T06:22:31;18.40;99.90
15777;DHT22;7989;51.198;6.676;2022-08-21T06:24:57;18.70;99.90
15777;DHT22;7989;51.198;6.676;2022-08-21T06:27:26;19.50;99.90
15777;DHT22;7989;51.198;6.676;2022-08-21T06:29:52;19.60;99.90
15777;DHT22;7989;51.198;6.676;2022-08-21T06:32:21;22.10;99.90
15777;DHT22;7989;51.198;6.676;2022-08-21T06:34:48;23.80;99.90
15777;DHT22;7989;51.198;6.676;2022-08-21T06:37:15;22.40;99.90
15777;DHT22;7989;51.198;6.676;2022-08-21T06:39:42;22.40;99.90
15777;DHT22;7989;51.198;6.676;2022-08-21T06:42:13;23.40;99.90
15777;DHT22;7989;51.198;6.676;2022-08-21T06:44:42;25.30;99.90
15777;DHT22;7989;51.198;6.676;2022-08-21T06:47:09;29.20;99.90
15777;DHT22;7989;51.198;6.676;2022-08-21T06:49:36;31.40;99.90
15777;DHT22;7989;51.198;6.676;2022-08-21T06:52:03;31.60;99.90
15777;DHT22;7989;51.198;6.676;2022-08-21T06:54:32;28.50;99.90
15777;DHT22;7989;51.198;6.676;2022-08-21T06:56:59;30.00;99.90
15777;DHT22;7989;51.198;6.676;2022-08-21T06:59:26;27.30;99.90
15777;DHT22;7989;51.198;6.676;2022-08-21T07:01:54;25.60;99.90
15777;DHT22;7989;51.198;6.676;2022-08-21T07:04:21;24.70;99.90
15777;DHT22;7989;51.198;6.676;2022-08-21T07:06:47;25.10;99.90
15777;DHT22;7989;51.198;6.676;2022-08-21T07:09:14;25.00;99.90
15777;DHT22;7989;51.198;6.676;2022-08-21T07:11:41;24.90;99.90
15777;DHT22;7989;51.198;6.676;2022-08-21T07:14:08;24.20;99.90
15777;DHT22;7989;51.198;6.676;2022-08-21T07:16:35;23.10;99.90
15777;DHT22;7989;51.198;6.676;2022-08-21T07:19:03;22.50;99.90
15777;DHT22;7989;51.198;6.676;2022-08-21T07:21:30;22.20;99.90
15777;DHT22;7989;51.198;6.676;2022-08-21T07:23:57;22.00;99.90
15777;DHT22;7989;51.198;6.676;2022-08-21T07:26:24;22.70;99.90
15777;DHT22;7989;51.198;6.676;2022-08-21T07:28:52;22.70;99.90
15777;DHT22;7989;51.198;6.676;2022-08-21T07:31:20;22.80;99.90
15777;DHT22;7989;51.198;6.676;2022-08-21T07:33:47;23.00;99.90
15777;DHT22;7989;51.198;6.676;2022-08-21T07:36:16;24.70;99.90
15777;DHT22;7989;51.198;6.676;2022-08-21T07:38:43;27.40;99.90
15777;DHT22;7989;51.198;6.676;2022-08-21T07:41:17;28.80;99.90
15777;DHT22;7989;51.198;6.676;2022-08-21T07:43:44;28.90;99.90
15777;DHT22;7989;51.198;6.676;2022-08-21T07:46:12;26.70;99.90
15777;DHT22;7989;51.198;6.676;2022-08-21T07:48:39;24.80;99.90
15777;DHT22;7989;51.198;6.676;2022-08-21T07:51:08;23.80;99.90
15777;DHT22;7989;51.198;6.676;2022-08-21T07:53:37;24.60;99.90
15777;DHT22;7989;51.198;6.676;2022-08-21T07:56:07;24.30;99.90
15777;DHT22;7989;51.198;6.676;2022-08-21T07:58:36;23.40;99.90
15777;DHT22;7989;51.198;6.676;2022-08-21T08:01:03;23.00;99.90
15777;DHT22;7989;51.198;6.676;2022-08-21T08:03:31;22.60;99.90
15777;DHT22;7989;51.198;6.676;2022-08-21T08:05:58;22.40;99.90
15777;DHT22;7989;51.198;6.676;2022-08-21T08:08:25;22.30;99.90
15777;DHT22;7989;51.198;6.676;2022-08-21T08:10:53;22.20;99.90
15777;DHT22;7989;51.198;6.676;2022-08-21T08:13:22;22.20;99.90
15777;DHT22;7989;51.198;6.676;2022-08-21T08:15:51;22.20;99.90
15777;DHT22;7989;51.198;6.676;2022-08-21T08:18:18;22.30;99.90
15777;DHT22;7989;51.198;6.676;2022-08-21T08:20:45;22.30;99.90
15777;DHT22;7989;51.198;6.676;2022-08-21T08:23:12;22.70;99.90
15777;DHT22;7989;51.198;6.676;2022-08-21T08:25:39;23.60;99.90
15777;DHT22;7989;51.198;6.676;2022-08-21T08:28:07;23.00;99.90
15777;DHT22;7989;51.198;6.676;2022-08-21T08:30:34;22.70;99.90
15777;DHT22;7989;51.198;6.676;2022-08-21T08:33:01;22.50;99.90
15777;DHT22;7989;51.198;6.676;2022-08-21T08:35:28;22.50;99.90
15777;DHT22;7989;51.198;6.676;2022-08-21T08:37:55;22.50;99.90
15777;DHT22;7989;51.198;6.676;2022-08-21T08:40:28;22.50;99.90
15777;DHT22;7989;51.198;6.676;2022-08-21T08:42:58;22.50;99.90
15777;DHT22;7989;51.198;6.676;2022-08-21T08:45:30;22.60;99.90
15777;DHT22;7989;51.198;6.676;2022-08-21T08:48:02;22.70;99.90
15777;DHT22;7989;51.198;6.676;2022-08-21T08:50:39;22.90;99.90
15777;DHT22;7989;51.198;6.676;2022-08-21T08:53:12;23.80;99.90
15777;DHT22;7989;51.198;6.676;2022-08-21T08:55:40;25.10;99.90
15777;DHT22;7989;51.198;6.676;2022-08-21T08:58:09;24.30;99.90
15777;DHT22;7989;51.198;6.676;2022-08-21T09:00:39;23.80;99.90
15777;DHT22;7989;51.198;6.676;2022-08-21T09:03:06;23.50;99.90
15777;DHT22;7989;51.198;6.676;2022-08-21T09:05:42;23.30;99.90
15777;DHT22;7989;51.198;6.676;2022-08-21T09:08:25;23.10;99.90
15777;DHT22;7989;51.198;6.676;2022-08-21T09:10:58;23.10;99.90
15777;DHT22;7989;51.198;6.676;2022-08-21T09:13:37;23.20;99.90
15777;DHT22;7989;51.198;6.676;2022-08-21T09:16:16;25.00;99.90
15777;DHT22;7989;51.198;6.676;2022-08-21T09:19:03;29.20;99.90
15777;DHT22;7989;51.198;6.676;2022-08-21T09:21:38;28.20;99.90
15777;DHT22;7989;51.198;6.676;2022-08-21T09:24:21;26.30;99.90
15777;DHT22;7989;51.198;6.676;2022-08-21T09:26:57;26.30;99.90
15777;DHT22;7989;51.198;6.676;2022-08-21T09:29:30;26.00;99.90
15777;DHT22;7989;51.198;6.676;2022-08-21T09:31:59;26.20;99.90
15777;DHT22;7989;51.198;6.676;2022-08-21T09:34:28;25.30;99.90
15777;DHT22;7989;51.198;6.676;2022-08-21T09:36:56;25.40;99.90
15777;DHT22;7989;51.198;6.676;2022-08-21T09:39:27;24.60;99.90
15777;DHT22;7989;51.198;6.676;2022-08-21T09:41:59;24.30;99.90
15777;DHT22;7989;51.198;6.676;2022-08-21T09:44:27;24.00;99.90
15777;DHT22;7989;51.198;6.676;2022-08-21T09:46:55;23.90;99.90
15777;DHT22;7989;51.198;6.676;2022-08-21T09:49:31;24.00;99.90
15777;DHT22;7989;51.198;6.676;2022-08-21T09:51:59;24.40;99.90
15777;DHT22;7989;51.198;6.676;2022-08-21T09:54:29;24.90;99.90
15777;DHT22;7989;51.198;6.676;2022-08-21T09:57:00;25.20;99.90
15777;DHT22;7989;51.198;6.676;2022-08-21T09:59:46;25.20;99.90
15777;DHT22;7989;51.198;6.676;2022-08-21T10:02:25;24.60;99.90
15777;DHT22;7989;51.198;6.676;2022-08-21T10:04:57;24.40;99.90
15777;DHT22;7989;51.198;6.676;2022-08-21T10:07:26;24.30;99.90
15777;DHT22;7989;51.198;6.676;2022-08-21T10:10:03;24.40;99.90
15777;DHT22;7989;51.198;6.676;2022-08-21T10:12:36;24.20;99.90
15777;DHT22;7989;51.198;6.676;2022-08-21T10:15:13;24.30;99.90
15777;DHT22;7989;51.198;6.676;2022-08-21T10:17:47;24.40;99.90
15777;DHT22;7989;51.198;6.676;2022-08-21T10:20:23;24.40;99.90
15777;DHT22;7989;51.198;6.676;2022-08-21T10:23:05;24.60;99.90
15777;DHT22;7989;51.198;6.676;2022-08-21T10:25:40;24.60;99.90
15777;DHT22;7989;51.198;6.676;2022-08-21T10:28:13;24.40;99.90
15777;DHT22;7989;51.198;6.676;2022-08-21T10:30:49;24.30;99.90
15777;DHT22;7989;51.198;6.676;2022-08-21T10:33:25;24.60;99.90
15777;DHT22;7989;51.198;6.676;2022-08-21T10:36:02;24.80;99.90
15777;DHT22;7989;51.198;6.676;2022-08-21T10:39:01;25.00;99.90
15777;DHT22;7989;51.198;6.676;2022-08-21T10:41:46;24.90;99.90
15777;DHT22;7989;51.198;6.676;2022-08-21T10:44:26;24.90;99.90
15777;DHT22;7989;51.198;6.676;2022-08-21T10:47:02;25.10;99.90
15777;DHT22;7989;51.198;6.676;2022-08-21T10:49:38;25.10;99.90
15777;DHT22;7989;51.198;6.676;2022-08-21T10:52:31;25.00;99.90
15777;DHT22;7989;51.198;6.676;2022-08-21T10:55:04;25.10;99.90
15777;DHT22;7989;51.198;6.676;2022-08-21T10:57:36;25.00;99.90
15777;DHT22;7989;51.198;6.676;2022-08-21T11:00:09;25.20;99.90
15777;DHT22;7989;51.198;6.676;2022-08-21T11:02:40;25.40;99.90
15777;DHT22;7989;51.198;6.676;2022-08-21T11:05:12;25.50;99.90
15777;DHT22;7989;51.198;6.676;2022-08-21T11:07:45;25.60;99.90
15777;DHT22;7989;51.198;6.676;2022-08-21T11:10:18;26.00;99.90
15777;DHT22;7989;51.198;6.676;2022-08-21T11:12:48;26.30;99.90
15777;DHT22;7989;51.198;6.676;2022-08-21T11:15:28;26.30;99.90
15777;DHT22;7989;51.198;6.676;2022-08-21T11:18:02;26.20;99.90
15777;DHT22;7989;51.198;6.676;2022-08-21T11:20:34;26.20;99.90
15777;DHT22;7989;51.198;6.676;2022-08-21T11:23:09;26.00;99.90
15777;DHT22;7989;51.198;6.676;2022-08-21T11:25:42;25.90;99.90
15777;DHT22;7989;51.198;6.676;2022-08-21T11:28:16;25.70;99.90
15777;DHT22;7989;51.198;6.676;2022-08-21T11:30:51;25.80;99.90
15777;DHT22;7989;51.198;6.676;2022-08-21T11:33:31;25.40;99.90
15777;DHT22;7989;51.198;6.676;2022-08-21T11:36:10;25.40;99.90
15777;DHT22;7989;51.198;6.676;2022-08-21T11:38:44;25.60;99.90
15777;DHT22;7989;51.198;6.676;2022-08-21T11:41:22;25.80;99.90
15777;DHT22;7989;51.198;6.676;2022-08-21T11:43:54;26.10;99.90
15777;DHT22;7989;51.198;6.676;2022-08-21T11:46:31;26.20;99.90
15777;DHT22;7989;51.198;6.676;2022-08-21T11:49:10;26.60;99.90
15777;DHT22;7989;51.198;6.676;2022-08-21T11:51:46;26.80;99.90
15777;DHT22;7989;51.198;6.676;2022-08-21T11:54:23;26.70;99.90
15777;DHT22;7989;51.198;6.676;2022-08-21T11:56:55;26.80;99.90
15777;DHT22;7989;51.198;6.676;2022-08-21T11:59:33;26.70;99.90
15777;DHT22;7989;51.198;6.676;2022-08-21T12:02:07;26.80;99.90
15777;DHT22;7989;51.198;6.676;2022-08-21T12:04:44;27.00;99.90
15777;DHT22;7989;51.198;6.676;2022-08-21T12:07:14;27.10;99.90
15777;DHT22;7989;51.198;6.676;2022-08-21T12:09:52;27.00;99.90
15777;DHT22;7989;51.198;6.676;2022-08-21T12:12:25;27.30;99.90
15777;DHT22;7989;51.198;6.676;2022-08-21T12:15:17;27.40;99.90
15777;DHT22;7989;51.198;6.676;2022-08-21T12:17:55;27.50;99.90
15777;DHT22;7989;51.198;6.676;2022-08-21T12:20:39;27.50;99.90
15777;DHT22;7989;51.198;6.676;2022-08-21T12:23:19;27.50;99.90
15777;DHT22;7989;51.198;6.676;2022-08-21T12:29:07;27.80;99.90
15777;DHT22;7989;51.198;6.676;2022-08-21T12:31:49;28.20;99.90
15777;DHT22;7989;51.198;6.676;2022-08-21T12:34:17;28.40;99.90
15777;DHT22;7989;51.198;6.676;2022-08-21T12:36:48;28.40;99.90
15777;DHT22;7989;51.198;6.676;2022-08-21T12:39:22;28.30;99.90
15777;DHT22;7989;51.198;6.676;2022-08-21T12:41:57;27.80;99.90
15777;DHT22;7989;51.198;6.676;2022-08-21T12:44:35;28.20;99.90
15777;DHT22;7989;51.198;6.676;2022-08-21T12:47:04;28.40;99.90
15777;DHT22;7989;51.198;6.676;2022-08-21T12:49:34;28.30;99.90
15777;DHT22;7989;51.198;6.676;2022-08-21T12:52:09;28.20;99.90
15777;DHT22;7989;51.198;6.676;2022-08-21T12:54:39;28.30;99.80
15777;DHT22;7989;51.198;6.676;2022-08-21T12:57:16;28.30;99.90
15777;DHT22;7989;51.198;6.676;2022-08-21T12:59:43;28.30;99.90
15777;DHT22;7989;51.198;6.676;2022-08-21T13:02:15;28.60;99.60
15777;DHT22;7989;51.198;6.676;2022-08-21T13:04:44;28.70;98.80
15777;DHT22;7989;51.198;6.676;2022-08-21T13:07:15;28.70;98.20
15777;DHT22;7989;51.198;6.676;2022-08-21T13:09:47;29.10;98.60
15777;DHT22;7989;51.198;6.676;2022-08-21T13:12:17;29.20;98.30
15777;DHT22;7989;51.198;6.676;2022-08-21T13:14:46;29.50;97.20
15777;DHT22;7989;51.198;6.676;2022-08-21T13:17:17;29.20;96.10
15777;DHT22;7989;51.198;6.676;2022-08-21T13:19:56;29.10;97.10
15777;DHT22;7989;51.198;6.676;2022-08-21T13:22:26;29.10;97.20
15777;DHT22;7989;51.198;6.676;2022-08-21T13:24:53;28.40;98.20
15777;DHT22;7989;51.198;6.676;2022-08-21T13:27:24;28.00;98.60
15777;DHT22;7989;51.198;6.676;2022-08-21T13:30:08;28.10;98.40
15777;DHT22;7989;51.198;6.676;2022-08-21T13:32:39;28.00;98.00
15777;DHT22;7989;51.198;6.676;2022-08-21T13:35:13;27.80;98.20
15777;DHT22;7989;51.198;6.676;2022-08-21T13:37:41;28.40;98.00
15777;DHT22;7989;51.198;6.676;2022-08-21T13:40:11;28.20;97.50
15777;DHT22;7989;51.198;6.676;2022-08-21T13:42:43;27.80;97.00
15777;DHT22;7989;51.198;6.676;2022-08-21T13:45:17;27.50;97.90
15777;DHT22;7989;51.198;6.676;2022-08-21T13:47:46;27.50;98.90
15777;DHT22;7989;51.198;6.676;2022-08-21T13:50:15;28.10;98.90
15777;DHT22;7989;51.198;6.676;2022-08-21T13:52:56;28.50;98.30
15777;DHT22;7989;51.198;6.676;2022-08-21T13:55:23;28.60;97.50
15777;DHT22;7989;51.198;6.676;2022-08-21T13:58:00;28.70;97.60
15777;DHT22;7989;51.198;6.676;2022-08-21T14:00:29;28.80;97.10
15777;DHT22;7989;51.198;6.676;2022-08-21T14:03:03;28.80;97.70
15777;DHT22;7989;51.198;6.676;2022-08-21T14:05:33;28.80;97.30
15777;DHT22;7989;51.198;6.676;2022-08-21T14:08:05;28.50;97.90
15777;DHT22;7989;51.198;6.676;2022-08-21T14:10:36;28.70;97.30
15777;DHT22;7989;51.198;6.676;2022-08-21T14:13:24;28.20;97.50
15777;DHT22;7989;51.198;6.676;2022-08-21T14:15:56;28.40;97.70
15777;DHT22;7989;51.198;6.676;2022-08-21T14:18:23;28.40;97.40
15777;DHT22;7989;51.198;6.676;2022-08-21T14:21:03;28.50;97.10
15777;DHT22;7989;51.198;6.676;2022-08-21T14:23:30;28.70;97.20
15777;DHT22;7989;51.198;6.676;2022-08-21T14:26:00;28.90;96.90
15777;DHT22;7989;51.198;6.676;2022-08-21T14:28:31;29.00;96.90
15777;DHT22;7989;51.198;6.676;2022-08-21T14:31:11;28.50;97.90
15777;DHT22;7989;51.198;6.676;2022-08-21T14:33:39;28.60;96.70
15777;DHT22;7989;51.198;6.676;2022-08-21T14:36:06;28.40;97.00
15777;DHT22;7989;51.198;6.676;2022-08-21T14:38:35;28.70;96.50
15777;DHT22;7989;51.198;6.676;2022-08-21T14:41:08;28.80;97.10
15777;DHT22;7989;51.198;6.676;2022-08-21T14:43:38;28.90;96.20
15777;DHT22;7989;51.198;6.676;2022-08-21T14:46:05;28.60;95.60
15777;DHT22;7989;51.198;6.676;2022-08-21T14:48:32;28.10;96.10
15777;DHT22;7989;51.198;6.676;2022-08-21T14:50:59;28.30;97.20
15777;DHT22;7989;51.198;6.676;2022-08-21T14:53:26;28.40;96.00
15777;DHT22;7989;51.198;6.676;2022-08-21T14:55:53;28.40;95.80
15777;DHT22;7989;51.198;6.676;2022-08-21T14:58:34;28.20;95.40
15777;DHT22;7989;51.198;6.676;2022-08-21T15:01:05;27.90;95.90
15777;DHT22;7989;51.198;6.676;2022-08-21T15:03:32;27.80;96.80
15777;DHT22;7989;51.198;6.676;2022-08-21T15:05:59;27.90;96.70
15777;DHT22;7989;51.198;6.676;2022-08-21T15:08:26;27.90;96.70
15777;DHT22;7989;51.198;6.676;2022-08-21T15:10:54;27.80;96.50
15777;DHT22;7989;51.198;6.676;2022-08-21T15:13:21;27.70;96.10
15777;DHT22;7989;51.198;6.676;2022-08-21T15:15:50;27.70;96.20
15777;DHT22;7989;51.198;6.676;2022-08-21T15:18:19;27.50;96.70
15777;DHT22;7989;51.198;6.676;2022-08-21T15:20:46;27.40;96.40
15777;DHT22;7989;51.198;6.676;2022-08-21T15:23:13;27.40;96.70
15777;DHT22;7989;51.198;6.676;2022-08-21T15:25:41;27.40;96.70
15777;DHT22;7989;51.198;6.676;2022-08-21T15:28:09;27.50;96.40
15777;DHT22;7989;51.198;6.676;2022-08-21T15:30:36;27.20;96.20
15777;DHT22;7989;51.198;6.676;2022-08-21T15:33:04;27.30;97.20
15777;DHT22;7989;51.198;6.676;2022-08-21T15:35:32;27.50;97.00
15777;DHT22;7989;51.198;6.676;2022-08-21T15:37:59;27.20;96.20
15777;DHT22;7989;51.198;6.676;2022-08-21T15:40:27;27.10;96.60
15777;DHT22;7989;51.198;6.676;2022-08-21T15:42:57;27.10;96.60
15777;DHT22;7989;51.198;6.676;2022-08-21T15:45:25;27.10;96.10
15777;DHT22;7989;51.198;6.676;2022-08-21T15:47:52;27.00;96.70
15777;DHT22;7989;51.198;6.676;2022-08-21T15:50:20;27.20;96.00
15777;DHT22;7989;51.198;6.676;2022-08-21T15:52:48;27.10;95.60
15777;DHT22;7989;51.198;6.676;2022-08-21T15:55:15;27.20;95.80
15777;DHT22;7989;51.198;6.676;2022-08-21T15:57:45;27.20;95.30
15777;DHT22;7989;51.198;6.676;2022-08-21T16:00:14;27.10;96.30
15777;DHT22;7989;51.198;6.676;2022-08-21T16:02:44;27.10;95.20
15777;DHT22;7989;51.198;6.676;2022-08-21T16:05:13;27.10;95.70